Decoded Metar for KDNL (AUGUSTA/DANIEL in GA, USA) (IATA:DNL) | Meteo·Mobile Aviation Weather
aviador You're here:

KDNL Decoded Metar

AUGUSTA/DANIEL in GA, USA
Report Time2019-02-18 09:43:00
UTC Time2019-02-18 10:01:17
Flight Rules ifr IFR
Wind320° at 05 kt
W.Decomp.*RWY 29: 4.1 kt HW 2.8 kt RCW
RWY 05: 0.3 kt HW 5 kt LCW
W.Rank320° ranks 32
Current wind is below 320° avg. (5.9)
Visibility9999 m
Phenomena:N/A
Clouds:Broken 005 Hf
Overcast 030 Hf
Expected CloudBase > 800 ft AGL from Temp-Dew spread
Ceiling500 ft
Temp08°C (ISA -6)
Dew Point06°C (87% RH)
AAT5.3°C
QNH1015 hPa
Density Alt-249 ft
Elevation427 ft
Report Wrong Elevation
Raw Report
KDNL 180943Z AUTO 32005KT 10SM BKN005 OVC030 08/06 A2997 RMK AO2
T00780056 TSNO $=

Extra information for KDNL:More info

Metar Taf Metar & Taf Last 4 Metars F.Rules Stats Wind Profile Meteogram Temp Stats Airport Information Weather charts Add Link Nearby VenuesMetar ALERT Operation Metar Decoded Social comments

AIRNAV info for KDNL